createdAt,value
2019-05-30T00:04:20.896Z,102039.50
2019-05-30T00:09:23.120Z,102034.02
2019-05-30T00:14:26.186Z,102036.81
2019-05-30T00:19:28.872Z,102045.23
2019-05-30T00:24:31.761Z,102047.42
2019-05-30T00:29:33.938Z,102052.23
2019-05-30T00:34:36.073Z,102051.81
2019-05-30T00:39:39.520Z,102045.80
2019-05-30T00:44:41.682Z,102052.20
2019-05-30T00:49:44.732Z,102047.22
2019-05-30T00:54:47.000Z,102046.61
2019-05-30T00:59:49.322Z,102047.84
2019-05-30T01:04:52.035Z,102044.86
2019-05-30T01:09:54.679Z,102039.30
2019-05-30T01:14:57.158Z,102039.22
2019-05-30T01:19:59.376Z,73698.50
2019-05-30T01:25:01.904Z,74030.81
2019-05-30T01:30:05.736Z,119494.76
2019-05-30T01:35:09.857Z,119494.37
2019-05-30T01:40:12.729Z,131415.72
2019-05-30T01:45:15.244Z,-23254.16
2019-05-30T01:50:18.036Z,-23306.04
2019-05-30T01:55:20.584Z,-23306.04
2019-05-30T02:00:36.260Z,-23306.04
2019-05-30T02:05:38.637Z,-23306.04
2019-05-30T02:10:42.320Z,-23306.04
2019-05-30T02:15:44.501Z,-23306.04
2019-05-30T02:20:47.017Z,-23306.04
2019-05-30T02:25:49.845Z,-23126.30
2019-05-30T02:30:52.955Z,119494.76
2019-05-30T02:35:55.599Z,119494.76
2019-05-30T02:40:58.343Z,119494.76
2019-05-30T02:46:01.167Z,119494.76
2019-05-30T02:51:05.573Z,102041.37
2019-05-30T02:56:09.612Z,102041.37
2019-05-30T03:01:14.347Z,102061.03
2019-05-30T03:06:18.041Z,102069.55
2019-05-30T03:11:21.235Z,104175.60
2019-05-30T03:16:24.006Z,102067.16
2019-05-30T03:21:26.498Z,102070.52
2019-05-30T03:26:29.639Z,102075.73
2019-05-30T03:31:35.593Z,73353.69
2019-05-30T03:36:37.843Z,154186.06
2019-05-30T03:41:40.724Z,166530.81
2019-05-30T03:46:50.425Z,166157.89
2019-05-30T03:51:56.769Z,166531.45
2019-05-30T03:57:09.039Z,166156.44
2019-05-30T04:02:26.908Z,166156.44
2019-05-30T04:07:33.305Z,166156.44
2019-05-30T04:13:17.740Z,166156.44
2019-05-30T04:18:20.468Z,166156.44
2019-05-30T04:23:23.075Z,166156.44
2019-05-30T04:28:26.078Z,50328.27
2019-05-30T04:33:33.046Z,166156.44
2019-05-30T04:38:32.329Z,166156.44
2019-05-30T04:43:35.096Z,166156.44
2019-05-30T04:48:37.342Z,166156.44
2019-05-30T04:53:40.051Z,166156.44
2019-05-30T04:58:43.012Z,166156.44
2019-05-30T05:03:46.879Z,50328.27
2019-05-30T05:08:49.627Z,166156.44
2019-05-30T05:13:51.792Z,166156.44
2019-05-30T05:18:54.107Z,166156.44
2019-05-30T05:23:56.286Z,166156.44
2019-05-30T05:28:58.587Z,166156.44
2019-05-30T05:34:00.769Z,166156.44
2019-05-30T05:39:05.879Z,166156.44
2019-05-30T05:44:08.857Z,166156.44
2019-05-30T05:49:11.081Z,166156.44
2019-05-30T05:54:13.879Z,166156.44
2019-05-30T05:59:17.022Z,166156.44
2019-05-30T06:04:21.102Z,166156.44
2019-05-30T06:09:24.653Z,166156.44
2019-05-30T06:14:28.137Z,166156.44
2019-05-30T06:19:45.350Z,166156.44
2019-05-30T06:24:34.614Z,166156.44
2019-05-30T06:29:37.551Z,166156.44
2019-05-30T06:34:40.260Z,166156.44
2019-05-30T06:39:43.171Z,166155.78
2019-05-30T06:44:45.640Z,166156.44
2019-05-30T06:50:00.556Z,166156.44
2019-05-30T06:55:03.964Z,166156.44
2019-05-30T07:00:07.253Z,166156.44
2019-05-30T07:05:10.901Z,166156.44
2019-05-30T07:10:16.138Z,166156.44
2019-05-30T07:15:19.018Z,166156.44
2019-05-30T07:20:22.024Z,166156.44
2019-05-30T07:25:25.623Z,-23306.04
2019-05-30T07:30:28.564Z,-23306.04
2019-05-30T07:35:32.084Z,-23306.04
2019-05-30T07:40:35.240Z,44726.16
2019-05-30T07:45:38.626Z,-23306.04
2019-05-30T07:50:41.245Z,195095.56
